< < Back
Terminal Aerodrome Forecast


Current Version              Previous Versions:   1  2  3  4  5  6  7  8  9  

Terminal Aerodrome Forecast

265
FTUS42 KMLB 041911 AAA
TAFMCO
TAF AMD
KMCO 041911Z 0419/0518 17007KT P6SM VCTS FEW045CB FEW150 FEW250
     FM042000 10010KT P6SM VCTS SCT035CB BKN080
      TEMPO 0420/0423 VRB20G30KT 3SM TSRA BKN020CB OVC040
     FM050000 11006KT P6SM SCT040 OVC100
     FM050300 15003KT P6SM SCT120 BKN250=

Latest METAR

401
SAUS70 KWBC 050700 RRG
MTRMCO
METAR KMCO 050653Z 00000KT 5SM BR FEW120 OVC270 26/24 A3013 RMK AO2
SLP203 T02560239


USA.gov is the U.S. government's official web portal to all federal, state and local government web resources and services.